Tiempo atmosférico en la estación meteorológica de Alpedrete, Madrid (924 m.)



Fecha
DESCASC
Temp. máxima en grados centígrados (hora)
DESCASC
Temp. mínima en grados centígrados (hora)
DESCASC
Temp. media en grados centígrados
DESCASC
Racha de viento máxima en m/sg (hora)
DESCASC
Velocidad máxima media en intervalos de 10 minutos(hora)
DESCASC
Precipitaciones diarias en mm
DESCASC
Precipitaciones de 00:00 a 06:00 en mm
DESCASC
Precipitaciones de 06:00 a 12:00 en mm
DESCASC
Precipitaciones de 12:00 a 18:00 en mm
DESCASC
Precipitaciones de 18:00 a 24:00 en mm
DESCASC
16-01-2020 11.2 (16:40) 4.8 (01:10) 8 4.72 (15:50) 2.22 (15:50) 1.4 0 1.2 0.2 0
15-01-2020 6.4 (16:20) 2.1 (00:00) 4.3 4.17 (04:50) 1.94 (04:50) 0 0 0 0 0
14-01-2020 8.9 (15:50) -3.8 (08:30) 2.5 3.89 (14:00) 1.94 (13:50) 0 0 0 0 0
13-01-2020 9.8 (14:50) -2.4 (08:40) 3.7 3.33 (15:20) 1.39 (15:10) 0 0 0 0 0
12-01-2020 14 (15:10) -3 (-00:0) 5.5 3.61 (15:40) 1.67 (16:20) 0 0 0 0 0
11-01-2020 14.2 (15:20) -2.4 (-00:0) 5.9 5.28 (03:20) 3.06 (03:20) 0 0 0 0 0
10-01-2020 11.9 (11:50) 1.5 (00:00) 6.7 11.67 (00:10) 5.83 (00:10) 0 0 0 0 0
09-01-2020 14.1 (15:00) 1.4 (00:00) 7.8 11.94 (14:20) 7.22 (22:50) 0 0 0 0 0
08-01-2020 19.3 (13:10) 3.3 (00:00) 11.3 3.89 (14:00) 2.22 (14:00) 0 0 0 0 0
07-01-2020 17.8 (14:30) 1.7 (00:00) 9.7 5 (23:10) 2.78 (23:10) 0 0 0 0 0
06-01-2020 17 (14:20) 1 (00:00) 9 4.72 (15:00) 2.5 (14:50) 0 0 0 0 0
05-01-2020 18.2 (15:30) -0.7 (-00:0) 8.8 2.78 (14:30) 1.39 (14:30) 0 0 0 0 0
04-01-2020 10.7 (15:40) -0.7 (-00:0) 5 5.83 (13:40) 3.33 (13:10) 0 0 0 0 0
03-01-2020 9.5 (13:20) 0.1 (00:00) 4.8 11.11 (14:40) 5.83 (14:50) 0 0 0 0 0
02-01-2020 14.3 (16:40) 0.4 (00:00) 7.4 3.33 (15:10) 1.39 (15:10) 0 0 0 0 0
01-01-2020 17.4 (14:20) 0.4 (00:00) 8.9 3.33 (15:20) 1.39 (15:20) 0 0 0 0 0
31-12-2019 18.4 (14:40) 0.8 (00:00) 9.6 2.78 (16:50) 1.39 (16:30) 0 0 0 0 0
30-12-2019 -- (--) -- (--) -- -- (--) -- (--) -- 0 0 0 --
29-12-2019 19.2 (15:10) 1.9 (00:00) 10.6 2.22 (01:00) 1.11 (03:50) 0 0 0 0 0
28-12-2019 21.9 (12:40) 2.4 (00:00) 12.1 3.61 (16:00) 1.94 (15:40) 0 0 0 0 0
27-12-2019 20.4 (16:10) 1.1 (00:00) 10.7 2.78 (02:40) 1.67 (02:40) 0 0 0 0 0
26-12-2019 18.2 (16:10) 4 (00:00) 11.1 10.56 (03:00) 5.83 (02:50) 0 0 0 0 0
25-12-2019 19.3 (12:20) 4.5 (00:00) 11.9 3.61 (16:10) 1.67 (16:00) 0 0 0 0 0
24-12-2019 16.8 (15:00) 3.7 (00:00) 10.2 3.89 (00:40) 1.39 (00:40) 0 0 0 0 0
23-12-2019 16 (15:20) 5.5 (00:00) 10.8 10.83 (01:40) 5.28 (10:00) 0 0 0 0 0
22-12-2019 13.4 (13:30) 7.3 (00:00) 10.3 23.06 (00:20) 11.39 (00:20) 0 0 0 0 0
21-12-2019 17.3 (13:50) 10 (00:00) 13.6 20.28 (22:40) 11.39 (22:40) 0.4 0 0.2 0 0.2
20-12-2019 14.3 (22:10) 8.5 (00:00) 11.4 18.89 (07:40) 9.72 (06:50) 25.2 16.2 2.4 4 2.6

Gráficas

Temp. máximas Temp. mínimas Temp. medias Precipitaciones Rachas de viento máximas Velocidades máximas media en intervalos de 10 minutos

Datos horarios

Fecha y hora oficial Temperatura (ºC) Velocidad del viento (km/h) Dirección del viento Racha (km/h) Dirección de racha Precipitación (mm) Presión (hPa) Tendencia (hPa) Humedad (%)
2020-01-18 23:00:00 5.2 4 Oeste 35 Noroeste 0.8 -- -- 86
2020-01-18 22:00:00 7.2 14 Oeste 32 Noroeste 0 -- -- 79
2020-01-18 21:00:00 5.3 12 Noroeste 43 Norte 0.8 -- -- 91
2020-01-18 20:00:00 5.2 3 Este 13 Sudeste 0 -- -- 98
2020-01-18 19:00:00 5.4 2 Oeste 6 Norte 0 -- -- 98
2020-01-18 18:00:00 5.4 0 Calma 4 Norte 0 -- -- 97
2020-01-18 17:00:00 5.4 0 Calma 6 Norte 0 -- -- 97
2020-01-18 16:00:00 5.3 2 Oeste 7 Sur 0 -- -- 96
2020-01-18 15:00:00 5.4 3 Sur 6 Sudeste 0 -- -- 95
2020-01-18 14:00:00 5.3 0 Calma 4 Este 0.4 -- -- 95
2020-01-18 13:00:00 5.2 0 Calma 4 Sur 0.4 -- -- 95
2020-01-18 12:00:00 4.6 0 Calma 2 Sudoeste 0.6 -- -- 94
2020-01-18 11:00:00 3.9 0 Calma 3 Sudoeste 0.6 -- -- 93
2020-01-18 10:00:00 3.8 2 Este 6 Este 0.2 -- -- 90
2020-01-18 09:00:00 3.7 3 Norte 9 Oeste 0 -- -- 88
2020-01-18 08:00:00 4.1 3 Noroeste 7 Sur 0 -- -- 82
2020-01-18 07:00:00 4.3 2 Sudoeste 10 Oeste 0 -- -- 80
2020-01-18 06:00:00 4.2 3 Sudoeste 14 Sur 0 -- -- 78
2020-01-18 05:00:00 4.2 3 Norte 9 Norte 0 -- -- 78
2020-01-18 04:00:00 3.8 0 Calma 5 Noroeste 0 -- -- 79
2020-01-18 03:00:00 3.9 0 Calma 6 Este 0 -- -- 78
2020-01-18 02:00:00 3.8 0 Calma 8 Norte 0 -- -- 76
2020-01-18 01:00:00 3.9 4 Noroeste 10 Nordeste 0 -- -- 74
2020-01-18 00:00:00 4.2 3 Nordeste 10 Norte 0 -- -- 73
2020-01-17 23:00:00 4.6 6 Norte 10 Norte 0 -- -- 68
2020-01-17 22:00:00 5.5 3 Norte 15 Noroeste 0 -- -- 66
2020-01-17 21:00:00 5.6 4 Noroeste 23 Noroeste 0 -- -- 70
2020-01-17 20:00:00 6.6 8 Oeste 22 Noroeste 0 -- -- 66
2020-01-17 19:00:00 7.9 10 Noroeste 17 Noroeste 0 -- -- 60
2020-01-17 18:00:00 9.4 3 Sur 25 Noroeste 0 -- -- 57
2020-01-17 17:00:00 10.1 17 Noroeste 32 Oeste 0 -- -- 51
2020-01-17 16:00:00 10.6 17 Noroeste 32 Noroeste 0 -- -- 51
2020-01-17 15:00:00 10.8 15 Oeste 28 Oeste 0 -- -- 55
2020-01-17 14:00:00 9.8 7 Noroeste 18 Oeste 0 -- -- 65
2020-01-17 13:00:00 7.6 9 Oeste 28 Oeste 0 -- -- 75
2020-01-17 12:00:00 6.9 14 Oeste 33 Oeste 0 -- -- 79
2020-01-17 11:00:00 7.5 9 Noroeste 16 Oeste 0 -- -- 79
2020-01-17 10:00:00 5.6 3 Norte 6 Este 0 -- -- 86
2020-01-17 09:00:00 4.4 2 Oeste 8 Noroeste 0 -- -- 90
2020-01-17 08:00:00 3.9 3 Noroeste 8 Noroeste 0 -- -- 96
2020-01-17 07:00:00 2.8 2 Nordeste 7 Norte 0 -- -- 96
2020-01-17 06:00:00 1.9 2 Este 8 Norte 0 -- -- 96
2020-01-17 05:00:00 2 3 Norte 8 Norte 0 -- -- 92
2020-01-17 04:00:00 4.1 2 Nordeste 15 Oeste 0 -- -- 89
2020-01-17 03:00:00 5.6 7 Oeste 22 Oeste 0 -- -- 84
2020-01-17 02:00:00 6.2 12 Oeste 26 Sudoeste 0 -- -- 78
2020-01-17 01:00:00 5.9 4 Sur 10 Sudoeste 0 -- -- 89
2020-01-17 00:00:00 7.1 2 Oeste 10 Sur 0 -- -- 84
2020-01-16 23:00:00 7.4 0 Calma 10 Este 0 -- -- 84
2020-01-16 22:00:00 7.5 4 Nordeste 9 Este 0 -- -- 85
2020-01-16 21:00:00 7.5 3 Este 9 Este 0 -- -- 86
2020-01-16 20:00:00 7.9 4 Este 12 Este 0 -- -- 83
2020-01-16 19:00:00 7.9 3 Este 14 Sudeste 0 -- -- 85
2020-01-16 18:00:00 8 4 Nordeste 13 Sur 0 -- -- 82
2020-01-16 17:00:00 10.4 6 Sur 12 Sur 0 -- -- 73
2020-01-16 16:00:00 9.1 7 Sudeste 17 Sudeste 0 -- -- 84
2020-01-16 15:00:00 8.8 5 Este 12 Sudeste 0 -- -- 85
2020-01-16 14:00:00 9.4 2 Sudeste 7 Sudeste 0 -- -- 91
2020-01-16 13:00:00 6.4 0 Calma 5 Sur 0.2 -- -- 98
2020-01-16 12:00:00 6.2 0 Calma 5 Este 0 -- -- 98
2020-01-16 11:00:00 6.1 0 Calma 4 Oeste 0.8 -- -- 98
2020-01-16 10:00:00 5.7 0 Calma 3 Sudeste 0.4 -- -- 98
2020-01-16 09:00:00 5.6 0 Calma 6 Este 0 -- -- 98
2020-01-16 08:00:00 5.3 3 Este 7 Este 0 -- -- 98
2020-01-16 07:00:00 5.5 0 Calma 5 Noroeste 0 -- -- 97
2020-01-16 06:00:00 5.4 3 Noroeste 5 Noroeste 0 -- -- 95
2020-01-16 05:00:00 5.2 2 Este 5 Sudeste 0 -- -- 93
2020-01-16 04:00:00 5.3 0 Calma 4 Norte 0 -- -- 92
2020-01-16 03:00:00 5.1 0 Calma 4 Norte 0 -- -- 92
2020-01-16 02:00:00 4.9 0 Calma 5 Este 0 -- -- 93
2020-01-16 01:00:00 4.9 0 Calma 3 Este 0 -- -- 92
2020-01-16 00:00:00 5 3 Noroeste 5 Oeste 0 -- -- 92
2020-01-15 23:00:00 4.8 3 Noroeste 6 Norte 0 -- -- 93
2020-01-15 22:00:00 4.9 0 Calma 7 Sudeste 0 -- -- 92
2020-01-15 21:00:00 5.4 3 Noroeste 6 Noroeste 0 -- -- 90
2020-01-15 20:00:00 5.5 0 Calma 6 Noroeste 0 -- -- 89
2020-01-15 19:00:00 5.7 0 Calma 5 Sudeste 0 -- -- 88
2020-01-15 18:00:00 5.9 0 Calma 4 Sur 0 -- -- 87
2020-01-15 17:00:00 6.1 0 Calma 5 Sur 0 -- -- 86
2020-01-15 16:00:00 5.9 2 Oeste 8 Sur 0 -- -- 86
2020-01-15 15:00:00 5.8 5 Sur 9 Sur 0 -- -- 86
2020-01-15 14:00:00 6.1 2 Sudoeste 8 Sudoeste 0 -- -- 89
2020-01-15 13:00:00 5.1 0 Calma 4 Sur 0 -- -- 92
2020-01-15 12:00:00 4.7 0 Calma 9 Norte 0 -- -- 92
2020-01-15 11:00:00 4.2 3 Noroeste 7 Oeste 0 -- -- 94
2020-01-15 10:00:00 4 0 Calma 4 Norte 0 -- -- 94
2020-01-15 09:00:00 3.5 3 Sudeste 9 Sudeste 0 -- -- 94
2020-01-15 08:00:00 3.6 0 Calma 5 Sudeste 0 -- -- 95
2020-01-15 07:00:00 3.9 0 Calma 6 Sudeste 0 -- -- 94
2020-01-15 06:00:00 4.1 2 Sur 9 Sur 0 -- -- 94
2020-01-15 05:00:00 3.8 3 Sudeste 15 Norte 0 -- -- 96
2020-01-15 04:00:00 2.9 2 Sudeste 7 Norte 0 -- -- 94
2020-01-15 03:00:00 2.9 2 Oeste 6 Noroeste 0 -- -- 94
2020-01-15 02:00:00 3 2 Nordeste 6 Oeste 0 -- -- 92
2020-01-15 01:00:00 2.2 2 Oeste 5 Sur 0 -- -- 87
2020-01-15 00:00:00 2.1 0 Calma 5 Noroeste 0 -- -- 86
2020-01-14 23:00:00 1.9 0 Calma 6 Sudoeste 0 -- -- 87
2020-01-14 22:00:00 1 0 Calma 6 Norte 0 -- -- 89
2020-01-14 21:00:00 1.4 0 Calma 7 Norte 0 -- -- 87
2020-01-14 20:00:00 1.8 2 Noroeste 4 Norte 0 -- -- 83
2020-01-14 19:00:00 4 0 Calma 6 Sur 0 -- -- 78
2020-01-14 18:00:00 4.6 3 Sudeste 9 Sur 0 -- -- 74
2020-01-14 17:00:00 7.4 4 Sudeste 10 Sur 0 -- -- 63
2020-01-14 16:00:00 8.3 3 Oeste 9 Sur 0 -- -- 59
2020-01-14 15:00:00 8.1 4 Sur 13 Sur 0 -- -- 60
2020-01-14 14:00:00 7.8 5 Sur 14 Sur 0 -- -- 60
2020-01-14 13:00:00 7.8 3 Sur 9 Sur 0 -- -- 62
2020-01-14 12:00:00 8.2 2 Este 7 Sudoeste 0 -- -- 59
2020-01-14 11:00:00 4.5 3 Sur 7 Sur 0 -- -- 72
2020-01-14 10:00:00 2.4 2 Sudeste 5 Sudeste 0 -- -- 76
2020-01-14 09:00:00 -3.4 3 Noroeste 6 Noroeste 0 -- -- 95
2020-01-14 08:00:00 -3.3 0 Calma 4 Noroeste 0 -- -- 94
2020-01-14 07:00:00 -3.2 0 Calma 5 Norte 0 -- -- 95
2020-01-14 06:00:00 -2.9 0 Calma 3 Norte 0 -- -- 95
2020-01-14 05:00:00 -2.7 0 Calma 4 Noroeste 0 -- -- 95
2020-01-14 04:00:00 -2.6 0 Calma 4 Sur 0 -- -- 94
2020-01-14 03:00:00 -2.1 0 Calma 4 Nordeste 0 -- -- 94
2020-01-14 02:00:00 -1.6 2 Este 6 Noroeste 0 -- -- 93
2020-01-14 01:00:00 -1.8 0 Calma 6 Norte 0 -- -- 92
2020-01-14 00:00:00 -1.4 0 Calma 5 Norte 0 -- -- 90
2020-01-13 23:00:00 -0.8 0 Calma 4 Sudoeste 0 -- -- 89
2020-01-13 22:00:00 0.5 0 Calma 5 Norte 0 -- -- 87
2020-01-13 21:00:00 0.6 0 Calma 5 Norte 0 -- -- 85
2020-01-13 20:00:00 1.4 0 Calma 5 Noroeste 0 -- -- 83
2020-01-13 19:00:00 3.4 0 Calma 6 Sudeste 0 -- -- 75
2020-01-13 18:00:00 5.9 3 Sur 9 Sudeste 0 -- -- 65
2020-01-13 17:00:00 7.2 4 Sur 11 Sudeste 0 -- -- 60
2020-01-13 16:00:00 8.4 4 Sur 12 Sudeste 0 -- -- 55
2020-01-13 15:00:00 9.3 5 Sudeste 11 Sur 0 -- -- 52
2020-01-13 14:00:00 8.2 4 Sur 9 Sur 0 -- -- 51
2020-01-13 13:00:00 7.8 4 Sudeste 8 Sur 0 -- -- 55
2020-01-13 12:00:00 6.4 2 Sur 6 Sudoeste 0 -- -- 62
2020-01-13 11:00:00 3 0 Calma 3 Sur 0 -- -- 67
2020-01-13 10:00:00 0.3 0 Calma 4 Noroeste 0 -- -- 76
2020-01-13 09:00:00 -2.2 0 Calma 5 Norte 0 -- -- 83
2020-01-13 08:00:00 -1.8 0 Calma 8 Noroeste 0 -- -- 80
2020-01-13 07:00:00 -2.1 2 Noroeste 5 Norte 0 -- -- 80
2020-01-13 06:00:00 -1.4 0 Calma 8 Noroeste 0 -- -- 79
2020-01-13 05:00:00 -2.1 2 Noroeste 5 Este 0 -- -- 82
2020-01-13 04:00:00 0 0 Calma 7 Norte 0 -- -- 74
2020-01-13 03:00:00 -0.9 3 Noroeste 6 Norte 0 -- -- 80
2020-01-13 02:00:00 -0.4 4 Norte 6 Norte 0 -- -- 80
2020-01-13 01:00:00 -0.7 0 Calma 6 Norte 0 -- -- 80
2020-01-13 00:00:00 0.3 3 Norte 6 Noroeste 0 -- -- 74
2020-01-12 23:00:00 0.9 0 Calma 4 Oeste 0 -- -- 70
2020-01-12 22:00:00 1 0 Calma 6 Norte 0 -- -- 71
2020-01-12 21:00:00 1.5 0 Calma 4 Sudeste 0 -- -- 71
2020-01-12 20:00:00 2.8 0 Calma 4 Norte 0 -- -- 66
2020-01-12 19:00:00 5.1 0 Calma 4 Sudoeste 0 -- -- 59
2020-01-12 18:00:00 9.2 0 Calma 8 Sur 0 -- -- 46
2020-01-12 17:00:00 12.1 4 Sur 12 Sur 0 -- -- 38
2020-01-12 16:00:00 13.6 4 Sur 13 Sudeste 0 -- -- 33
2020-01-12 15:00:00 13.7 3 Sudoeste 12 Sur 0 -- -- 32
2020-01-12 14:00:00 13.1 3 Sur 9 Sudoeste 0 -- -- 25
2020-01-12 13:00:00 11.7 3 Sudoeste 7 Oeste 0 -- -- 28
2020-01-12 12:00:00 10.5 2 Sudoeste 6 Sudoeste 0 -- -- 34
2020-01-12 11:00:00 9.6 0 Calma 3 Sudeste 0 -- -- 36
2020-01-12 10:00:00 3.8 3 Sudeste 6 Sudeste 0 -- -- 51
2020-01-12 09:00:00 -2.2 0 Calma 4 Noroeste 0 -- -- 66
2020-01-12 08:00:00 -2.2 0 Calma 4 Norte 0 -- -- 64
2020-01-12 07:00:00 -2.7 0 Calma 5 Noroeste 0 -- -- 67
2020-01-12 06:00:00 -2 0 Calma 5 Sur 0 -- -- 74
2020-01-12 05:00:00 -0.6 0 Calma 8 Norte 0 -- -- 71
2020-01-12 04:00:00 -1.1 0 Calma 6 Norte 0 -- -- 73
2020-01-12 03:00:00 -1.4 0 Calma 5 Norte 0 -- -- 72
2020-01-12 02:00:00 -0.1 2 Norte 5 Norte 0 -- -- 69
2020-01-12 01:00:00 0.2 3 Norte 5 Norte 0 -- -- 66
2020-01-12 00:00:00 0.4 0 Calma 5 Noroeste 0 -- -- 67
2020-01-11 23:00:00 1.1 0 Calma 4 Norte 0 -- -- 61
2020-01-11 22:00:00 1.9 2 Norte 6 Norte 0 -- -- 56
2020-01-11 21:00:00 1.7 2 Noroeste 5 Noroeste 0 -- -- 58
2020-01-11 20:00:00 3 0 Calma 5 Norte 0 -- -- 55
2020-01-11 19:00:00 4.9 0 Calma 5 Norte 0 -- -- 47
2020-01-11 18:00:00 9.5 3 Sudoeste 11 Sur 0 -- -- 34
2020-01-11 17:00:00 11.6 6 Sur 14 Sudoeste 0 -- -- 32
2020-01-11 16:00:00 12.5 5 Oeste 11 Sudoeste 0 -- -- 29
2020-01-11 15:00:00 12.4 5 Sur 13 Sur 0 -- -- 29
2020-01-11 14:00:00 12.6 3 Oeste 11 Sudoeste 0 -- -- 31
2020-01-11 13:00:00 11.6 5 Sudoeste 9 Sur 0 -- -- 33
2020-01-11 12:00:00 11.4 2 Oeste 6 Sudoeste 0 -- -- 38
2020-01-11 11:00:00 9.8 0 Calma 5 Sudeste 0 -- -- 45
2020-01-11 10:00:00 3.8 3 Noroeste 5 Norte 0 -- -- 57
2020-01-11 09:00:00 -2 3 Noroeste 6 Noroeste 0 -- -- 76
2020-01-11 08:00:00 -2.2 3 Norte 8 Noroeste 0 -- -- 78
2020-01-11 07:00:00 -2.2 0 Calma 6 Norte 0 -- -- 79
2020-01-11 06:00:00 -1.5 0 Calma 5 Norte 0 -- -- 75
2020-01-11 05:00:00 -0.5 2 Nordeste 11 Norte 0 -- -- 71
2020-01-11 04:00:00 1.4 5 Noroeste 19 Norte 0 -- -- 60
2020-01-11 03:00:00 0.9 9 Norte 17 Norte 0 -- -- 68
2020-01-11 02:00:00 0.4 5 Este 12 Norte 0 -- -- 73
2020-01-11 01:00:00 1.1 3 Norte 8 Norte 0 -- -- 70
2020-01-11 00:00:00 1.5 3 Este 11 Norte 0 -- -- 72
2020-01-10 23:00:00 1.8 3 Norte 8 Norte 0 -- -- 68
2020-01-10 22:00:00 2.8 2 Norte 16 Noroeste 0 -- -- 68
2020-01-10 21:00:00 5 8 Norte 19 Norte 0 -- -- 61
2020-01-10 20:00:00 4.5 5 Nordeste 11 Noroeste 0 -- -- 62
2020-01-10 19:00:00 5.5 4 Norte 14 Norte 0 -- -- 58
2020-01-10 18:00:00 7.4 7 Norte 23 Noroeste 0 -- -- 53
2020-01-10 17:00:00 10 11 Noroeste 30 Norte 0 -- -- 44
2020-01-10 16:00:00 10.2 15 Noroeste 31 Noroeste 0 -- -- 44
2020-01-10 15:00:00 9.7 16 Noroeste 30 Noroeste 0 -- -- 45
2020-01-10 14:00:00 10.4 12 Norte 38 Norte 0 -- -- 41
2020-01-10 13:00:00 9.7 16 Norte 31 Norte 0 -- -- 43
2020-01-10 12:00:00 10.9 5 Sudoeste 13 Sur 0 -- -- 45
2020-01-10 11:00:00 7.6 9 Sudeste 15 Sudeste 0 -- -- 57
2020-01-10 10:00:00 6.1 5 Sudeste 10 Sudeste 0 -- -- 63
2020-01-10 09:00:00 3.6 3 Noroeste 18 Norte 0 -- -- 67
2020-01-10 08:00:00 4.5 10 Noroeste 30 Norte 0 -- -- 63
2020-01-10 07:00:00 4.5 16 Noroeste 25 Noroeste 0 -- -- 62
2020-01-10 06:00:00 4.6 10 Noroeste 26 Oeste 0 -- -- 59
2020-01-10 05:00:00 4.7 10 Noroeste 24 Noroeste 0 -- -- 63
2020-01-10 04:00:00 5.3 10 Noroeste 23 Noroeste 0 -- -- 64
2020-01-10 03:00:00 5.9 15 Noroeste 30 Noroeste 0 -- -- 66
2020-01-10 02:00:00 6.3 9 Noroeste 34 Norte 0 -- -- 66
2020-01-10 01:00:00 7.2 15 Noroeste 42 Noroeste 0 -- -- 65
2020-01-10 00:00:00 8.4 23 Noroeste 41 Noroeste 0 -- -- 67
2020-01-09 23:00:00 9 20 Noroeste 39 Oeste 0 -- -- 70
2020-01-09 22:00:00 10.4 16 Oeste 27 Noroeste 0 -- -- 72
2020-01-09 21:00:00 10.8 10 Oeste 30 Oeste 0 -- -- 70
2020-01-09 20:00:00 11 19 Noroeste 32 Noroeste 0 -- -- 67
2020-01-09 19:00:00 9.7 8 Noroeste 14 Noroeste 0 -- -- 71
2020-01-09 18:00:00 9.7 3 Sudoeste 16 Sur 0 -- -- 65
2020-01-09 17:00:00 12.6 7 Sudoeste 27 Oeste 0 -- -- 57
2020-01-09 16:00:00 13.8 14 Oeste 29 Oeste 0 -- -- 60
2020-01-09 15:00:00 14.1 14 Noroeste 43 Oeste 0 -- -- 58
2020-01-09 14:00:00 13.1 20 Oeste 34 Oeste 0 -- -- 57
2020-01-09 13:00:00 12.8 4 Oeste 12 Sudoeste 0 -- -- 51
2020-01-09 12:00:00 12.2 4 Sur 8 Sur 0 -- -- 51
2020-01-09 11:00:00 10.6 3 Sudeste 7 Sudeste 0 -- -- 56
2020-01-09 10:00:00 7.6 0 Calma 4 Este 0 -- -- 67
2020-01-09 09:00:00 2.1 0 Calma 6 Norte 0 -- -- 88
2020-01-09 08:00:00 1.4 0 Calma 5 Norte 0 -- -- 87
2020-01-09 07:00:00 2 0 Calma 4 Noroeste 0 -- -- 86
2020-01-09 06:00:00 2 2 Nordeste 6 Norte 0 -- -- 86
2020-01-09 05:00:00 2.3 0 Calma 2 Este 0 -- -- 82
2020-01-09 04:00:00 2.8 0 Calma 4 Norte 0 -- -- 79
2020-01-09 03:00:00 3.4 0 Calma 2 Norte 0 -- -- 76
2020-01-09 02:00:00 3 3 Norte 4 Norte 0 -- -- 78
2020-01-09 01:00:00 3.9 0 Calma 4 Norte 0 -- -- 74
2020-01-09 00:00:00 4.7 3 Norte 7 Norte 0 -- -- 71
2020-01-08 23:00:00 4.4 0 Calma 5 Norte 0 -- -- 73
2020-01-08 22:00:00 5.2 0 Calma 8 Sur 0 -- -- 70
2020-01-08 21:00:00 6.5 3 Norte 6 Norte 0 -- -- 65
2020-01-08 20:00:00 7.3 0 Calma 4 Norte 0 -- -- 64
2020-01-08 19:00:00 9.4 0 Calma 4 Norte 0 -- -- 56
2020-01-08 18:00:00 13 2 Sudoeste 9 Sur 0 -- -- 43
2020-01-08 17:00:00 15.6 5 Sur 12 Sur 0 -- -- 35
2020-01-08 16:00:00 17.3 4 Sudeste 11 Sur 0 -- -- 29
2020-01-08 15:00:00 17.6 4 Sudoeste 13 Sur 0 -- -- 30
2020-01-08 14:00:00 17.3 8 Sur 14 Sur 0 -- -- 33
2020-01-08 13:00:00 18.6 0 Calma 6 Sudoeste 0 -- -- 21
2020-01-08 12:00:00 17.3 0 Calma 4 Sudoeste 0 -- -- 27
2020-01-08 11:00:00 13.9 3 Sur 5 Sudoeste 0 -- -- 36
2020-01-08 10:00:00 9.4 3 Norte 5 Norte 0 -- -- 41
2020-01-08 09:00:00 3.7 0 Calma 6 Norte 0 -- -- 56
2020-01-08 08:00:00 3.6 4 Norte 8 Norte 0 -- -- 57
2020-01-08 07:00:00 4.2 0 Calma 3 Este 0 -- -- 53
2020-01-08 06:00:00 4.1 0 Calma 4 Noroeste 0 -- -- 51
2020-01-08 05:00:00 3.7 3 Noroeste 6 Norte 0 -- -- 54
2020-01-08 04:00:00 4.8 0 Calma 8 Norte 0 -- -- 50
2020-01-08 03:00:00 5.9 0 Calma 8 Noroeste 0 -- -- 44
2020-01-08 02:00:00 5.7 3 Norte 7 Este 0 -- -- 45
2020-01-08 01:00:00 6.3 0 Calma 8 Nordeste 0 -- -- 41
2020-01-08 00:00:00 8.5 3 Nordeste 18 Noroeste 0 -- -- 37
2020-01-07 23:00:00 9 5 Norte 12 Norte 0 -- -- 30
2020-01-07 22:00:00 7.8 2 Norte 9 Noroeste 0 -- -- 34
2020-01-07 21:00:00 5.4 0 Calma 8 Nordeste 0 -- -- 59
2020-01-07 20:00:00 6.6 2 Norte 5 Noroeste 0 -- -- 64
2020-01-07 19:00:00 9.1 2 Este 5 Sudeste 0 -- -- 58
2020-01-07 18:00:00 12.8 0 Calma 7 Sudeste 0 -- -- 46
2020-01-07 17:00:00 15.8 4 Sur 10 Sur 0 -- -- 39
2020-01-07 16:00:00 17.1 4 Sur 9 Sudeste 0 -- -- 33
2020-01-07 15:00:00 17.6 4 Sur 10 Sur 0 -- -- 32
2020-01-07 14:00:00 17.6 3 Sudeste 9 Sur 0 -- -- 29
2020-01-07 13:00:00 15.7 3 Sudoeste 6 Sudoeste 0 -- -- 33
2020-01-07 12:00:00 15 0 Calma 5 Sur 0 -- -- 33
2020-01-07 11:00:00 12.7 3 Sudeste 5 Este 0 -- -- 39
2020-01-07 10:00:00 9.9 0 Calma 5 Norte 0 -- -- 46
2020-01-07 09:00:00 3.1 0 Calma 4 Norte 0 -- -- 62
2020-01-07 08:00:00 2.8 0 Calma 4 Norte 0 -- -- 59
2020-01-07 07:00:00 2.5 0 Calma 6 Norte 0 -- -- 64
2020-01-07 06:00:00 3 0 Calma 4 Norte 0 -- -- 65
2020-01-07 05:00:00 2.9 0 Calma 5 Norte 0 -- -- 68
2020-01-07 04:00:00 2.5 2 Noroeste 5 Norte 0 -- -- 73
2020-01-07 03:00:00 3.3 0 Calma 3 Noroeste 0 -- -- 70
2020-01-07 02:00:00 4 0 Calma 4 Norte 0 -- -- 67
2020-01-07 01:00:00 3.1 2 Norte 6 Norte 0 -- -- 72
2020-01-07 00:00:00 3.8 0 Calma 6 Noroeste 0 -- -- 68
2020-01-06 23:00:00 4.4 2 Norte 6 Norte 0 -- -- 65
2020-01-06 22:00:00 5 0 Calma 7 Norte 0 -- -- 64
2020-01-06 21:00:00 5.4 2 Sudoeste 6 Este 0 -- -- 68
2020-01-06 20:00:00 5.7 0 Calma 5 Norte 0 -- -- 68
2020-01-06 19:00:00 7.2 0 Calma 4 Sudoeste 0 -- -- 63
2020-01-06 18:00:00 11.2 0 Calma 7 Sur 0 -- -- 50
2020-01-06 17:00:00 15 3 Sur 10 Sur 0 -- -- 38
2020-01-06 16:00:00 15 5 Sur 13 Sur 0 -- -- 36
2020-01-06 15:00:00 14.5 9 Sur 17 Sur 0 -- -- 38
2020-01-06 14:00:00 16.1 5 Sur 14 Sur 0 -- -- 29
2020-01-06 13:00:00 15.5 4 Sudoeste 9 Sur 0 -- -- 26
2020-01-06 12:00:00 15.4 3 Sudeste 5 Sudeste 0 -- -- 32
2020-01-06 11:00:00 13.5 0 Calma 3 Sudeste 0 -- -- 33
2020-01-06 10:00:00 8.6 0 Calma 3 Este 0 -- -- 47